Terminal Aerodrome Forecast
Issued by NWS

Home | Current Version | Previous Version | Text Only | Print | Product List | Glossary On
Versions: 1 2 3 4 5 6 7 8 9 10 11 12 13 14 15 16 17 18 19 20 21
529
FTUS41 KGYX 240520
TAFRKD
TAF
KRKD 240520Z 2406/2506 22007KT 3SM BR OVC004
     FM240700 21007KT 1/2SM FG VCSH OVC001
     FM241300 24009KT 3SM BR OVC003
     FM241700 25006KT P6SM FEW020 SCT250
      AMD LTD TO CLD VIS AND WIND=

USA.gov is the U.S. government's official web portal to all federal, state and local government web resources and services.